createdAt,value
2019-04-16T00:00:14.984Z,9.90
2019-04-16T00:01:15.048Z,9.83
2019-04-16T00:02:18.563Z,9.83
2019-04-16T00:03:14.977Z,9.78
2019-04-16T00:04:14.946Z,9.72
2019-04-16T00:05:14.926Z,9.66
2019-04-16T00:06:14.918Z,9.60
2019-04-16T00:07:14.946Z,9.55
2019-04-16T00:08:27.231Z,9.65
2019-04-16T00:09:14.905Z,9.48
2019-04-16T00:10:14.871Z,9.32
2019-04-16T00:11:14.863Z,9.36
2019-04-16T00:12:14.892Z,9.24
2019-04-16T00:13:14.890Z,9.24
2019-04-16T00:14:14.828Z,9.23
2019-04-16T00:15:14.822Z,9.26
2019-04-16T00:16:14.807Z,9.30
2019-04-16T00:17:15.842Z,9.23
2019-04-16T00:18:18.412Z,9.29
2019-04-16T00:19:14.771Z,9.33
2019-04-16T00:20:14.762Z,9.30
2019-04-16T00:21:14.749Z,9.34
2019-04-16T00:22:14.738Z,9.26
2019-04-16T00:23:14.758Z,9.24
2019-04-16T00:24:18.152Z,9.22
2019-04-16T00:25:14.708Z,9.24
2019-04-16T00:26:14.693Z,9.12
2019-04-16T00:27:14.681Z,9.15
2019-04-16T00:28:14.695Z,9.16
2019-04-16T00:29:14.660Z,9.19
2019-04-16T00:30:14.665Z,9.03
2019-04-16T00:31:14.641Z,9.08
2019-04-16T00:32:14.630Z,9.06
2019-04-16T00:33:14.637Z,9.03
2019-04-16T00:34:14.620Z,8.98
2019-04-16T00:35:15.657Z,8.96
2019-04-16T00:36:15.435Z,8.90
2019-04-16T00:37:14.569Z,8.98
2019-04-16T00:38:14.582Z,8.98
2019-04-16T00:39:14.547Z,8.89
2019-04-16T00:40:14.534Z,8.80
2019-04-16T00:41:14.563Z,8.78
2019-04-16T00:42:14.513Z,8.81
2019-04-16T00:43:14.532Z,8.83
2019-04-16T00:44:14.499Z,8.83
2019-04-16T00:45:14.480Z,8.78
2019-04-16T00:46:14.470Z,8.74
2019-04-16T00:47:14.464Z,8.70
2019-04-16T00:48:14.479Z,8.68
2019-04-16T00:49:14.435Z,8.68
2019-04-16T00:50:14.441Z,8.72
2019-04-16T00:51:14.411Z,8.59
2019-04-16T00:52:14.398Z,8.62
2019-04-16T00:53:14.413Z,8.60
2019-04-16T00:54:14.382Z,8.55
2019-04-16T00:55:14.766Z,8.67
2019-04-16T00:56:16.213Z,8.68
2019-04-16T00:57:17.668Z,8.70
2019-04-16T00:58:14.356Z,8.70
2019-04-16T00:59:14.320Z,8.65
2019-04-16T01:00:14.312Z,8.74
2019-04-16T01:01:14.298Z,8.67
2019-04-16T01:02:14.288Z,8.71
2019-04-16T01:03:14.297Z,8.62
2019-04-16T01:04:14.275Z,8.59
2019-04-16T01:05:14.256Z,8.60
2019-04-16T01:06:14.242Z,8.56
2019-04-16T01:07:14.233Z,8.56
2019-04-16T01:08:14.245Z,8.62
2019-04-16T01:09:14.211Z,8.63
2019-04-16T01:10:14.197Z,8.62
2019-04-16T01:11:14.192Z,8.63
2019-04-16T01:12:14.211Z,8.60
2019-04-16T01:13:14.186Z,8.53
2019-04-16T01:14:14.155Z,8.53
2019-04-16T01:15:14.205Z,8.41
2019-04-16T01:16:14.132Z,8.42
2019-04-16T01:17:14.125Z,8.39
2019-04-16T01:18:14.147Z,8.42
2019-04-16T01:19:14.097Z,8.35
2019-04-16T01:20:14.090Z,8.37
2019-04-16T01:21:14.887Z,8.35
2019-04-16T01:22:16.076Z,8.41
2019-04-16T01:23:17.535Z,8.38
2019-04-16T01:24:14.108Z,8.31
2019-04-16T01:25:14.034Z,8.31
2019-04-16T01:26:14.019Z,8.42
2019-04-16T01:27:14.019Z,8.32
2019-04-16T01:28:14.001Z,8.32
2019-04-16T01:29:14.012Z,8.28
2019-04-16T01:30:13.989Z,8.26
2019-04-16T01:31:13.972Z,8.19
2019-04-16T01:32:13.963Z,8.24
2019-04-16T01:33:14.641Z,8.23
2019-04-16T01:34:15.252Z,8.28
2019-04-16T01:35:18.581Z,8.23
2019-04-16T01:36:14.908Z,8.23
2019-04-16T01:37:13.905Z,8.19
2019-04-16T01:38:13.882Z,8.20
2019-04-16T01:39:17.908Z,8.20
2019-04-16T01:40:18.379Z,8.14
2019-04-16T01:41:13.852Z,8.17
2019-04-16T01:42:13.912Z,8.24
2019-04-16T01:43:13.826Z,8.19
2019-04-16T01:44:13.835Z,8.16
2019-04-16T01:45:13.806Z,8.21
2019-04-16T01:46:13.794Z,8.24
2019-04-16T01:47:13.812Z,8.17
2019-04-16T01:48:13.805Z,8.19
2019-04-16T01:49:13.864Z,8.14
2019-04-16T01:50:14.137Z,8.19
2019-04-16T01:51:15.418Z,8.12
2019-04-16T01:52:13.732Z,8.12
2019-04-16T01:53:13.801Z,8.10
2019-04-16T01:54:13.780Z,8.10
2019-04-16T01:55:13.694Z,8.02
2019-04-16T01:56:13.680Z,8.09
2019-04-16T01:57:13.673Z,8.01
2019-04-16T01:58:13.661Z,7.96
2019-04-16T01:59:13.746Z,7.86
2019-04-16T02:00:13.642Z,7.92
2019-04-16T02:01:13.638Z,7.77
2019-04-16T02:02:15.761Z,7.83
2019-04-16T02:03:17.545Z,7.86
2019-04-16T02:04:13.614Z,7.94
2019-04-16T02:05:13.581Z,7.88
2019-04-16T02:06:13.567Z,7.91
2019-04-16T02:07:13.556Z,7.88
2019-04-16T02:08:13.544Z,7.94
2019-04-16T02:09:22.382Z,7.91
2019-04-16T02:10:13.535Z,7.78
2019-04-16T02:11:13.511Z,7.84
2019-04-16T02:12:14.152Z,7.87
2019-04-16T02:13:15.214Z,7.87
2019-04-16T02:14:14.582Z,7.81
2019-04-16T02:15:13.466Z,7.87
2019-04-16T02:16:13.454Z,7.87
2019-04-16T02:17:13.449Z,7.87
2019-04-16T02:18:13.437Z,7.86
2019-04-16T02:19:13.467Z,7.76
2019-04-16T02:20:13.408Z,7.77
2019-04-16T02:21:13.402Z,7.80
2019-04-16T02:22:14.087Z,7.78
2019-04-16T02:23:16.258Z,7.68
2019-04-16T02:24:13.598Z,7.73
2019-04-16T02:25:13.355Z,7.74
2019-04-16T02:26:13.340Z,7.74
2019-04-16T02:27:13.330Z,7.73
2019-04-16T02:28:13.323Z,7.71
2019-04-16T02:29:13.333Z,7.80
2019-04-16T02:30:13.307Z,7.61
2019-04-16T02:31:16.048Z,7.60
2019-04-16T02:32:13.277Z,7.61
2019-04-16T02:33:13.264Z,7.49
2019-04-16T02:34:13.683Z,7.49
2019-04-16T02:35:13.259Z,7.47
2019-04-16T02:36:13.256Z,7.46
2019-04-16T02:37:13.226Z,7.29
2019-04-16T02:38:14.246Z,7.34
2019-04-16T02:39:13.203Z,7.37
2019-04-16T02:40:18.493Z,7.31
2019-04-16T02:41:13.179Z,7.29
2019-04-16T02:42:13.163Z,7.34
2019-04-16T02:43:13.212Z,7.24
2019-04-16T02:44:16.315Z,7.21
2019-04-16T02:45:13.207Z,7.29
2019-04-16T02:46:13.574Z,7.21
2019-04-16T02:47:13.443Z,7.15
2019-04-16T02:48:16.664Z,7.16
2019-04-16T02:49:13.089Z,7.07
2019-04-16T02:50:13.096Z,7.07
2019-04-16T02:51:13.062Z,7.04
2019-04-16T02:52:16.454Z,7.15
2019-04-16T02:53:13.079Z,7.16
2019-04-16T02:54:13.029Z,7.07
2019-04-16T02:55:13.056Z,7.06
2019-04-16T02:56:17.199Z,7.06
2019-04-16T02:57:13.998Z,7.07
2019-04-16T02:58:12.990Z,7.19
2019-04-16T02:59:13.655Z,7.13
2019-04-16T03:00:17.603Z,7.03
2019-04-16T03:01:13.952Z,7.08
2019-04-16T03:02:12.941Z,7.08
2019-04-16T03:03:12.931Z,7.11
2019-04-16T03:04:12.918Z,7.06
2019-04-16T03:05:12.935Z,7.08
2019-04-16T03:06:12.896Z,7.07
2019-04-16T03:07:12.882Z,7.10
2019-04-16T03:08:12.872Z,7.04
2019-04-16T03:09:12.868Z,7.06
2019-04-16T03:10:13.867Z,7.11
2019-04-16T03:11:16.244Z,7.07
2019-04-16T03:12:12.829Z,7.07
2019-04-16T03:13:12.921Z,7.11
2019-04-16T03:14:12.806Z,7.10
2019-04-16T03:15:12.884Z,7.06
2019-04-16T03:16:12.829Z,6.99
2019-04-16T03:17:12.775Z,7.04
2019-04-16T03:18:14.867Z,7.00
2019-04-16T03:19:12.748Z,7.07
2019-04-16T03:20:12.761Z,7.15
2019-04-16T03:21:12.740Z,7.07
2019-04-16T03:22:12.906Z,7.07
2019-04-16T03:23:12.710Z,7.10
2019-04-16T03:24:12.893Z,7.07
2019-04-16T03:25:14.127Z,7.15
2019-04-16T03:26:16.190Z,7.08
2019-04-16T03:27:12.669Z,7.06
2019-04-16T03:28:12.651Z,7.01
2019-04-16T03:29:12.641Z,7.08
2019-04-16T03:30:12.652Z,7.11
2019-04-16T03:31:19.377Z,6.97
2019-04-16T03:32:14.794Z,7.04
2019-04-16T03:33:14.926Z,7.04
2019-04-16T03:34:12.883Z,6.99
2019-04-16T03:35:12.632Z,6.92
2019-04-16T03:36:12.559Z,6.92
2019-04-16T03:37:12.563Z,6.96
2019-04-16T03:38:12.541Z,6.93
2019-04-16T03:39:13.876Z,6.96
2019-04-16T03:40:17.373Z,7.00
2019-04-16T03:41:13.515Z,6.91
2019-04-16T03:42:12.493Z,6.97
2019-04-16T03:43:12.485Z,7.00
2019-04-16T03:44:12.475Z,6.96
2019-04-16T03:45:12.576Z,6.92
2019-04-16T03:46:13.935Z,6.92
2019-04-16T03:47:12.465Z,6.96
2019-04-16T03:48:12.428Z,6.99
2019-04-16T03:49:12.419Z,6.86
2019-04-16T03:50:12.445Z,6.91
2019-04-16T03:51:12.411Z,7.06
2019-04-16T03:52:12.382Z,6.92
2019-04-16T03:53:16.293Z,6.89
2019-04-16T03:54:12.364Z,6.92
2019-04-16T03:55:12.367Z,6.79
2019-04-16T03:56:12.366Z,6.91
2019-04-16T03:57:12.382Z,6.89
2019-04-16T03:58:12.317Z,6.92
2019-04-16T03:59:12.565Z,6.86
2019-04-16T04:00:13.165Z,6.91
2019-04-16T04:01:14.246Z,6.89
2019-04-16T04:02:15.073Z,6.88
2019-04-16T04:03:12.352Z,6.82
2019-04-16T04:04:12.255Z,6.81
2019-04-16T04:05:12.238Z,6.81
2019-04-16T04:06:12.249Z,6.78
2019-04-16T04:07:13.416Z,6.71
2019-04-16T04:08:16.333Z,6.70
2019-04-16T04:09:12.195Z,6.74
2019-04-16T04:10:12.185Z,6.73
2019-04-16T04:11:12.272Z,6.79
2019-04-16T04:12:12.977Z,6.68
2019-04-16T04:13:17.484Z,6.67
2019-04-16T04:14:12.186Z,6.70
2019-04-16T04:15:12.150Z,6.70
2019-04-16T04:16:12.229Z,6.67
2019-04-16T04:17:12.263Z,6.67
2019-04-16T04:18:12.905Z,6.64
2019-04-16T04:19:15.369Z,6.71
2019-04-16T04:20:14.604Z,6.70
2019-04-16T04:21:13.307Z,6.68
2019-04-16T04:22:12.049Z,6.67
2019-04-16T04:23:12.040Z,6.61
2019-04-16T04:24:12.031Z,6.57
2019-04-16T04:25:12.019Z,6.47
2019-04-16T04:26:12.185Z,6.57
2019-04-16T04:27:14.769Z,6.57
2019-04-16T04:28:12.012Z,6.52
2019-04-16T04:29:11.974Z,6.52
2019-04-16T04:30:11.982Z,6.45
2019-04-16T04:31:11.975Z,6.50
2019-04-16T04:32:11.942Z,6.49
2019-04-16T04:33:11.964Z,6.52
2019-04-16T04:34:15.900Z,6.53
2019-04-16T04:35:11.913Z,6.53
2019-04-16T04:36:12.224Z,6.47
2019-04-16T04:37:11.929Z,6.53
2019-04-16T04:38:11.874Z,6.50
2019-04-16T04:39:15.233Z,6.50
2019-04-16T04:40:15.376Z,6.61
2019-04-16T04:41:11.879Z,6.61
2019-04-16T04:42:11.839Z,6.57
2019-04-16T04:43:11.856Z,6.56
2019-04-16T04:44:12.027Z,6.55
2019-04-16T04:45:11.847Z,6.55
2019-04-16T04:46:14.813Z,6.56
2019-04-16T04:47:11.962Z,6.45
2019-04-16T04:48:12.272Z,6.49
2019-04-16T04:49:11.785Z,6.42
2019-04-16T04:50:11.742Z,6.45
2019-04-16T04:51:11.757Z,6.34
2019-04-16T04:52:14.715Z,6.30
2019-04-16T04:53:11.709Z,6.40
2019-04-16T04:54:11.698Z,6.35
2019-04-16T04:55:11.686Z,6.32
2019-04-16T04:56:11.701Z,6.31
2019-04-16T04:57:11.678Z,6.31
2019-04-16T04:58:11.653Z,6.34
2019-04-16T04:59:11.644Z,6.34
2019-04-16T05:00:11.639Z,6.31
2019-04-16T05:01:13.614Z,6.32
2019-04-16T05:02:14.261Z,6.28
2019-04-16T05:03:12.405Z,6.31
2019-04-16T05:04:11.586Z,6.25
2019-04-16T05:05:11.593Z,6.28
2019-04-16T05:06:11.600Z,6.27
2019-04-16T05:07:11.555Z,6.35
2019-04-16T05:08:11.555Z,6.40
2019-04-16T05:09:11.532Z,6.40
2019-04-16T05:10:11.521Z,6.40
2019-04-16T05:11:14.692Z,6.38
2019-04-16T05:12:11.526Z,6.42
2019-04-16T05:13:11.488Z,6.43
2019-04-16T05:14:11.479Z,6.37
2019-04-16T05:15:11.468Z,6.46
2019-04-16T05:16:11.522Z,6.46
2019-04-16T05:17:11.499Z,6.45
2019-04-16T05:18:11.622Z,6.46
2019-04-16T05:19:14.850Z,6.50
2019-04-16T05:20:15.094Z,6.46
2019-04-16T05:21:11.405Z,6.52
2019-04-16T05:22:11.414Z,6.53
2019-04-16T05:23:11.414Z,6.53
2019-04-16T05:24:11.366Z,6.60
2019-04-16T05:25:11.364Z,6.53
2019-04-16T05:26:11.349Z,6.60
2019-04-16T05:27:11.356Z,6.70
2019-04-16T05:28:12.721Z,6.65
2019-04-16T05:29:16.139Z,6.67
2019-04-16T05:30:11.303Z,6.74
2019-04-16T05:31:11.291Z,6.64
2019-04-16T05:32:11.345Z,6.75
2019-04-16T05:33:11.421Z,6.75
2019-04-16T05:34:11.264Z,6.71
2019-04-16T05:35:11.277Z,6.81
2019-04-16T05:36:14.287Z,6.79
2019-04-16T05:37:11.257Z,6.82
2019-04-16T05:38:11.213Z,6.85
2019-04-16T05:39:11.260Z,6.81
2019-04-16T05:40:11.201Z,6.91
2019-04-16T05:41:13.532Z,6.89
2019-04-16T05:42:11.217Z,6.96
2019-04-16T05:43:11.158Z,6.99
2019-04-16T05:44:11.253Z,6.97
2019-04-16T05:45:11.436Z,6.97
2019-04-16T05:46:11.502Z,6.97
2019-04-16T05:47:11.337Z,7.06
2019-04-16T05:48:11.346Z,6.93
2019-04-16T05:49:11.503Z,7.08
2019-04-16T05:50:11.076Z,7.10
2019-04-16T05:51:11.162Z,7.07
2019-04-16T05:52:11.084Z,7.10
2019-04-16T05:53:13.239Z,7.11
2019-04-16T05:54:12.306Z,7.11
2019-04-16T05:55:16.913Z,7.21
2019-04-16T05:56:11.013Z,7.22
2019-04-16T05:57:11.022Z,7.31
2019-04-16T05:58:10.991Z,7.22
2019-04-16T05:59:10.979Z,7.36
2019-04-16T06:00:10.981Z,7.26
2019-04-16T06:01:13.621Z,7.28
2019-04-16T06:02:11.034Z,7.33
2019-04-16T06:03:10.934Z,7.31
2019-04-16T06:04:10.919Z,7.39
2019-04-16T06:05:10.906Z,7.44
2019-04-16T06:06:10.897Z,7.49
2019-04-16T06:07:10.922Z,7.47
2019-04-16T06:08:10.889Z,7.50
2019-04-16T06:09:12.241Z,7.50
2019-04-16T06:10:17.007Z,7.64
2019-04-16T06:11:11.846Z,7.57
2019-04-16T06:12:10.854Z,7.61
2019-04-16T06:13:12.695Z,7.73
2019-04-16T06:14:16.962Z,7.73
2019-04-16T06:15:10.805Z,7.77
2019-04-16T06:16:10.803Z,7.88
2019-04-16T06:17:10.801Z,7.84
2019-04-16T06:18:10.766Z,7.94
2019-04-16T06:19:11.455Z,7.96
2019-04-16T06:20:10.741Z,8.04
2019-04-16T06:21:10.727Z,8.16
2019-04-16T06:22:10.749Z,8.16
2019-04-16T06:23:10.718Z,8.23
2019-04-16T06:24:10.693Z,8.23
2019-04-16T06:25:11.152Z,8.29
2019-04-16T06:26:14.557Z,8.38
2019-04-16T06:27:10.679Z,8.31
2019-04-16T06:28:10.680Z,8.42
2019-04-16T06:29:10.643Z,8.50
2019-04-16T06:30:10.626Z,8.60
2019-04-16T06:31:10.662Z,8.60
2019-04-16T06:32:11.888Z,8.67
2019-04-16T06:33:10.616Z,8.75
2019-04-16T06:34:10.582Z,8.70
2019-04-16T06:35:10.612Z,8.71
2019-04-16T06:36:10.561Z,8.81
2019-04-16T06:37:10.546Z,8.78
2019-04-16T06:38:10.561Z,8.86
2019-04-16T06:39:10.527Z,8.95
2019-04-16T06:40:10.518Z,9.03
2019-04-16T06:41:10.505Z,9.01
2019-04-16T06:42:10.495Z,9.01
2019-04-16T06:43:10.508Z,9.16
2019-04-16T06:44:10.468Z,9.11
2019-04-16T06:45:10.475Z,9.24
2019-04-16T06:46:10.445Z,9.27
2019-04-16T06:47:11.277Z,9.36
2019-04-16T06:48:13.181Z,9.37
2019-04-16T06:49:10.414Z,9.44
2019-04-16T06:50:10.403Z,9.50
2019-04-16T06:51:12.413Z,9.55
2019-04-16T06:52:15.884Z,9.67
2019-04-16T06:53:11.404Z,9.65
2019-04-16T06:54:11.230Z,9.73
2019-04-16T06:55:10.351Z,9.77
2019-04-16T06:56:10.333Z,9.81
2019-04-16T06:57:12.148Z,9.93
2019-04-16T06:58:12.450Z,9.98
2019-04-16T06:59:10.301Z,9.98
2019-04-16T07:00:10.291Z,10.01
2019-04-16T07:01:10.280Z,10.06
2019-04-16T07:02:10.589Z,10.09
2019-04-16T07:03:10.288Z,10.14
2019-04-16T07:04:10.246Z,10.18
2019-04-16T07:05:10.233Z,10.20
2019-04-16T07:06:10.224Z,10.18
2019-04-16T07:07:10.210Z,10.28
2019-04-16T07:08:10.230Z,10.35
2019-04-16T07:09:10.192Z,10.35
2019-04-16T07:10:10.177Z,10.42
2019-04-16T07:11:10.179Z,10.52
2019-04-16T07:12:10.155Z,10.60
2019-04-16T07:13:11.321Z,10.67
2019-04-16T07:14:11.553Z,10.67
2019-04-16T07:15:10.129Z,10.70
2019-04-16T07:16:10.118Z,10.76
2019-04-16T07:17:10.102Z,10.82
2019-04-16T07:18:10.114Z,10.86
2019-04-16T07:19:11.239Z,10.90
2019-04-16T07:20:13.096Z,10.86
2019-04-16T07:21:10.061Z,10.90
2019-04-16T07:22:10.048Z,10.97
2019-04-16T07:23:10.071Z,11.00
2019-04-16T07:24:10.039Z,11.05
2019-04-16T07:25:10.016Z,11.09
2019-04-16T07:26:13.479Z,11.05
2019-04-16T07:27:09.987Z,11.12
2019-04-16T07:28:10.009Z,11.18
2019-04-16T07:29:09.991Z,11.18
2019-04-16T07:30:09.968Z,11.22
2019-04-16T07:31:13.406Z,11.28
2019-04-16T07:32:09.989Z,11.31
2019-04-16T07:33:09.942Z,11.45
2019-04-16T07:34:09.910Z,11.41
2019-04-16T07:35:09.899Z,11.45
2019-04-16T07:36:09.905Z,11.49
2019-04-16T07:37:09.875Z,11.52
2019-04-16T07:38:11.583Z,11.58
2019-04-16T07:39:13.355Z,11.66
2019-04-16T07:40:10.533Z,11.66
2019-04-16T07:41:11.910Z,11.66
2019-04-16T07:42:12.623Z,11.82
2019-04-16T07:43:09.810Z,11.85
2019-04-16T07:44:11.114Z,11.79
2019-04-16T07:45:12.470Z,11.88
2019-04-16T07:46:09.822Z,12.04
2019-04-16T07:47:09.783Z,11.89
2019-04-16T07:48:09.752Z,12.07
2019-04-16T07:49:09.765Z,12.13
2019-04-16T07:50:09.730Z,12.11
2019-04-16T07:51:09.723Z,12.13
2019-04-16T07:52:12.173Z,12.25
2019-04-16T07:53:13.336Z,12.22
2019-04-16T07:54:09.718Z,12.32
2019-04-16T07:55:09.709Z,12.36
2019-04-16T07:56:09.671Z,12.38
2019-04-16T07:57:09.657Z,12.48
2019-04-16T07:58:09.648Z,12.48
2019-04-16T07:59:09.655Z,12.54
2019-04-16T08:00:09.868Z,12.66
2019-04-16T08:01:12.729Z,12.66
2019-04-16T08:02:09.676Z,12.79
2019-04-16T08:03:09.706Z,12.77
2019-04-16T08:04:09.607Z,12.91
2019-04-16T08:05:09.870Z,12.90
2019-04-16T08:06:10.658Z,13.05
2019-04-16T08:07:09.563Z,13.04
2019-04-16T08:08:09.535Z,13.21
2019-04-16T08:09:09.559Z,13.16
2019-04-16T08:10:09.510Z,13.23
2019-04-16T08:11:09.498Z,13.38
2019-04-16T08:12:22.080Z,13.39
2019-04-16T08:13:09.775Z,13.46
2019-04-16T08:14:10.307Z,13.58
2019-04-16T08:15:14.254Z,13.65
2019-04-16T08:16:09.457Z,13.72
2019-04-16T08:17:09.433Z,13.75
2019-04-16T08:18:09.466Z,13.86
2019-04-16T08:19:12.234Z,13.91
2019-04-16T08:20:09.403Z,14.00
2019-04-16T08:21:12.200Z,14.08
2019-04-16T08:22:09.397Z,14.19
2019-04-16T08:23:09.365Z,14.28
2019-04-16T08:24:09.395Z,14.40
2019-04-16T08:25:09.346Z,14.40
2019-04-16T08:26:12.926Z,14.63
2019-04-16T08:27:10.425Z,14.58
2019-04-16T08:28:09.308Z,14.78
2019-04-16T08:29:09.322Z,14.95
2019-04-16T08:30:09.285Z,14.92
2019-04-16T08:31:12.282Z,15.08
2019-04-16T08:32:09.277Z,15.19
2019-04-16T08:33:11.205Z,15.30
2019-04-16T08:34:09.268Z,15.43
2019-04-16T08:35:09.232Z,15.43
2019-04-16T08:36:09.409Z,15.56
2019-04-16T08:37:09.215Z,15.52
2019-04-16T08:38:09.198Z,15.54
2019-04-16T08:39:09.218Z,15.59
2019-04-16T08:40:12.246Z,15.54
2019-04-16T08:41:12.425Z,15.59
2019-04-16T08:42:09.193Z,15.73
2019-04-16T08:43:09.214Z,15.77
2019-04-16T08:44:10.302Z,15.88
2019-04-16T08:45:09.290Z,15.95
2019-04-16T08:46:11.265Z,16.05
2019-04-16T08:47:12.136Z,16.08
2019-04-16T08:48:09.719Z,16.05
2019-04-16T08:49:09.094Z,16.21
2019-04-16T08:50:11.745Z,16.26
2019-04-16T08:51:09.181Z,16.32
2019-04-16T08:52:10.172Z,16.37
2019-04-16T08:53:13.519Z,16.32
2019-04-16T08:54:10.047Z,16.28
2019-04-16T08:55:09.011Z,16.42
2019-04-16T08:56:09.003Z,16.44
2019-04-16T08:57:08.985Z,16.43
2019-04-16T08:58:12.214Z,16.42
2019-04-16T08:59:10.944Z,16.39
2019-04-16T09:00:14.392Z,16.34
2019-04-16T09:01:09.987Z,16.37
2019-04-16T09:02:08.930Z,16.54
2019-04-16T09:03:09.006Z,16.58
2019-04-16T09:04:08.905Z,16.59
2019-04-16T09:05:11.491Z,16.57
2019-04-16T09:06:12.790Z,16.72
2019-04-16T09:07:12.145Z,16.59
2019-04-16T09:08:13.008Z,16.64
2019-04-16T09:09:13.959Z,16.61
2019-04-16T09:10:17.140Z,16.62
2019-04-16T09:11:22.580Z,16.64
2019-04-16T09:12:09.743Z,16.64
2019-04-16T09:13:08.845Z,16.76
2019-04-16T09:14:08.803Z,16.73
2019-04-16T09:15:08.901Z,16.83
2019-04-16T09:16:10.803Z,16.91
2019-04-16T09:17:09.902Z,16.84
2019-04-16T09:18:08.749Z,16.97
2019-04-16T09:19:08.743Z,16.92
2019-04-16T09:20:08.761Z,16.99
2019-04-16T09:21:10.268Z,17.04
2019-04-16T09:22:08.705Z,17.10
2019-04-16T09:23:08.878Z,17.20
2019-04-16T09:24:09.682Z,17.20
2019-04-16T09:25:12.491Z,17.28
2019-04-16T09:26:14.820Z,17.35
2019-04-16T09:27:08.663Z,17.43
2019-04-16T09:28:23.789Z,17.43
2019-04-16T09:29:10.405Z,17.43
2019-04-16T09:30:10.796Z,17.43
2019-04-16T09:31:09.605Z,17.45
2019-04-16T09:32:08.594Z,17.57
2019-04-16T09:33:08.582Z,17.56
2019-04-16T09:34:08.578Z,17.53
2019-04-16T09:35:11.014Z,17.65
2019-04-16T09:36:08.550Z,17.69
2019-04-16T09:37:08.543Z,17.73
2019-04-16T09:38:09.374Z,17.76
2019-04-16T09:39:08.515Z,17.81
2019-04-16T09:40:16.741Z,17.84
2019-04-16T09:41:08.495Z,18.01
2019-04-16T09:42:08.482Z,17.96
2019-04-16T09:43:16.773Z,18.03
2019-04-16T09:44:08.684Z,18.08
2019-04-16T09:45:08.473Z,18.05
2019-04-16T09:46:10.947Z,18.06
2019-04-16T09:47:08.430Z,18.15
2019-04-16T09:48:08.417Z,18.20
2019-04-16T09:49:08.409Z,18.31
2019-04-16T09:50:11.071Z,18.38
2019-04-16T09:51:08.383Z,18.41
2019-04-16T09:52:08.370Z,18.57
2019-04-16T09:53:08.365Z,18.63
2019-04-16T09:54:12.677Z,18.71
2019-04-16T09:55:08.365Z,18.78
2019-04-16T09:56:08.329Z,18.86
2019-04-16T09:57:08.316Z,18.83
2019-04-16T09:58:08.306Z,18.94
2019-04-16T09:59:11.122Z,18.97
2019-04-16T10:00:09.309Z,19.15
2019-04-16T10:01:08.272Z,19.17
2019-04-16T10:02:08.336Z,19.32
2019-04-16T10:03:08.254Z,19.59
2019-04-16T10:04:08.245Z,19.71
2019-04-16T10:05:08.268Z,19.86
2019-04-16T10:06:08.224Z,19.82
2019-04-16T10:07:08.209Z,19.92
2019-04-16T10:08:09.549Z,19.81
2019-04-16T10:09:08.189Z,19.70
2019-04-16T10:10:08.221Z,19.74
2019-04-16T10:11:08.176Z,19.84
2019-04-16T10:12:08.670Z,19.79
2019-04-16T10:13:08.165Z,19.97
2019-04-16T10:14:08.133Z,19.97
2019-04-16T10:15:08.224Z,20.04
2019-04-16T10:16:08.134Z,20.09
2019-04-16T10:17:08.107Z,20.08
2019-04-16T10:18:08.113Z,20.29
2019-04-16T10:19:09.049Z,20.14
2019-04-16T10:20:08.100Z,20.18
2019-04-16T10:21:08.062Z,20.32
2019-04-16T10:22:08.079Z,20.52
2019-04-16T10:23:08.042Z,20.49
2019-04-16T10:24:08.033Z,20.53
2019-04-16T10:25:08.014Z,20.42
2019-04-16T10:26:08.039Z,20.49
2019-04-16T10:27:08.015Z,20.42
2019-04-16T10:28:07.997Z,20.46
2019-04-16T10:29:07.990Z,20.48
2019-04-16T10:30:07.991Z,20.52
2019-04-16T10:31:07.999Z,20.67
2019-04-16T10:32:07.963Z,20.92
2019-04-16T10:33:07.939Z,21.01
2019-04-16T10:34:07.933Z,21.01
2019-04-16T10:35:07.903Z,21.34
2019-04-16T10:36:08.003Z,21.62
2019-04-16T10:37:07.885Z,21.66
2019-04-16T10:38:07.877Z,21.71
2019-04-16T10:39:07.867Z,21.88
2019-04-16T10:40:07.861Z,21.96
2019-04-16T10:41:07.899Z,22.36
2019-04-16T10:42:07.846Z,22.77
2019-04-16T10:43:07.821Z,23.13
2019-04-16T10:44:07.808Z,23.64
2019-04-16T10:45:07.818Z,23.88
2019-04-16T10:46:09.761Z,24.03
2019-04-16T10:47:07.777Z,24.31
2019-04-16T10:48:07.775Z,24.89
2019-04-16T10:49:07.758Z,25.16
2019-04-16T10:50:07.762Z,25.68
2019-04-16T10:51:07.780Z,26.04
2019-04-16T10:52:07.745Z,26.38
2019-04-16T10:53:07.723Z,26.76
2019-04-16T10:54:07.748Z,27.31
2019-04-16T10:55:09.358Z,27.70
2019-04-16T10:56:07.707Z,28.15
2019-04-16T10:57:10.374Z,28.37
2019-04-16T10:58:07.695Z,28.81
2019-04-16T10:59:07.733Z,29.40
2019-04-16T11:00:07.661Z,29.61
2019-04-16T11:01:07.661Z,30.05
2019-04-16T11:02:10.640Z,30.46
2019-04-16T11:03:07.620Z,30.68
2019-04-16T11:04:07.979Z,31.02
2019-04-16T11:05:07.698Z,31.48
2019-04-16T11:06:07.635Z,31.24
2019-04-16T11:07:07.576Z,31.51
2019-04-16T11:08:08.186Z,32.11
2019-04-16T11:09:07.584Z,32.95
2019-04-16T11:10:07.560Z,33.33
2019-04-16T11:11:07.579Z,33.84
2019-04-16T11:12:07.533Z,33.52
2019-04-16T11:13:07.571Z,33.37
2019-04-16T11:14:07.532Z,33.03
2019-04-16T11:15:07.497Z,32.70
2019-04-16T11:16:07.529Z,32.73
2019-04-16T11:17:07.482Z,33.04
2019-04-16T11:18:07.506Z,33.29
2019-04-16T11:19:07.483Z,32.68
2019-04-16T11:20:08.157Z,32.38
2019-04-16T11:21:07.477Z,32.16
2019-04-16T11:22:07.474Z,32.01
2019-04-16T11:23:08.155Z,32.01
2019-04-16T11:24:07.417Z,32.04
2019-04-16T11:25:07.413Z,32.02
2019-04-16T11:26:07.427Z,32.05
2019-04-16T11:27:07.393Z,32.26
2019-04-16T11:28:07.396Z,32.33
2019-04-16T11:29:07.426Z,31.84
2019-04-16T11:30:07.397Z,32.04
2019-04-16T11:31:07.386Z,32.32
2019-04-16T11:32:07.345Z,32.41
2019-04-16T11:33:07.709Z,32.58
2019-04-16T11:34:07.413Z,33.29
2019-04-16T11:35:07.324Z,34.01
2019-04-16T11:36:18.625Z,34.25
2019-04-16T11:37:09.121Z,34.42
2019-04-16T11:38:07.353Z,35.02
2019-04-16T11:39:07.314Z,35.69
2019-04-16T11:40:07.286Z,35.14
2019-04-16T11:41:07.326Z,35.05
2019-04-16T11:42:07.454Z,35.23
2019-04-16T11:43:07.330Z,35.38
2019-04-16T11:44:15.212Z,35.91
2019-04-16T11:45:07.265Z,36.32
2019-04-16T11:46:07.302Z,36.42
2019-04-16T11:47:07.235Z,35.83
2019-04-16T11:48:07.218Z,36.06
2019-04-16T11:49:07.236Z,36.06
2019-04-16T11:50:07.246Z,35.58
2019-04-16T11:51:07.223Z,34.85
2019-04-16T11:52:07.231Z,34.55
2019-04-16T11:53:07.178Z,34.29
2019-04-16T11:54:08.344Z,34.72
2019-04-16T11:55:07.147Z,35.10
2019-04-16T11:56:07.157Z,35.75
2019-04-16T11:57:07.186Z,36.19
2019-04-16T11:58:07.151Z,36.09
2019-04-16T11:59:07.129Z,35.61
2019-04-16T12:00:08.460Z,35.56
2019-04-16T12:01:07.126Z,35.63
2019-04-16T12:02:07.164Z,35.88
2019-04-16T12:03:07.110Z,35.90
2019-04-16T12:04:07.099Z,35.97
2019-04-16T12:05:07.084Z,36.04
2019-04-16T12:06:07.070Z,36.44
2019-04-16T12:07:07.071Z,36.38
2019-04-16T12:08:07.041Z,35.87
2019-04-16T12:09:07.034Z,35.50
2019-04-16T12:10:07.075Z,35.29
2019-04-16T12:11:07.045Z,35.16
2019-04-16T12:12:07.052Z,35.50
2019-04-16T12:13:07.038Z,35.92
2019-04-16T12:14:10.001Z,35.07
2019-04-16T12:15:06.998Z,34.28
2019-04-16T12:16:07.031Z,33.81
2019-04-16T12:17:07.142Z,33.54
2019-04-16T12:18:07.110Z,33.78
2019-04-16T12:19:07.086Z,34.04
2019-04-16T12:20:07.089Z,34.20
2019-04-16T12:21:06.978Z,34.11
2019-04-16T12:22:07.168Z,34.40
2019-04-16T12:23:07.111Z,34.78
2019-04-16T12:24:06.950Z,34.63
2019-04-16T12:25:07.104Z,34.45
2019-04-16T12:26:09.528Z,34.28
2019-04-16T12:27:07.181Z,34.25
2019-04-16T12:28:11.606Z,33.93
2019-04-16T12:29:07.991Z,33.29
2019-04-16T12:30:07.079Z,32.99
2019-04-16T12:31:06.963Z,32.73
2019-04-16T12:32:07.195Z,32.77
2019-04-16T12:33:08.759Z,32.55
2019-04-16T12:34:06.980Z,32.65
2019-04-16T12:35:06.932Z,32.50
2019-04-16T12:36:07.045Z,32.76
2019-04-16T12:37:07.440Z,33.09
2019-04-16T12:38:12.264Z,33.17
2019-04-16T12:39:06.897Z,33.33
2019-04-16T12:40:06.788Z,33.13
2019-04-16T12:41:06.895Z,32.02
2019-04-16T12:42:06.800Z,31.17
2019-04-16T12:43:06.761Z,30.93
2019-04-16T12:44:06.741Z,30.28
2019-04-16T12:45:08.618Z,29.84
2019-04-16T12:46:06.751Z,29.63
2019-04-16T12:47:06.755Z,29.81
2019-04-16T12:48:06.751Z,30.18
2019-04-16T12:49:06.744Z,30.40
2019-04-16T12:50:06.714Z,30.60
2019-04-16T12:51:06.715Z,30.77
2019-04-16T12:52:06.858Z,30.59
2019-04-16T12:53:06.749Z,30.52
2019-04-16T12:54:06.675Z,30.32
2019-04-16T12:55:06.676Z,30.00
2019-04-16T12:56:08.791Z,30.22
2019-04-16T12:57:06.814Z,30.14
2019-04-16T12:58:06.621Z,30.21
2019-04-16T12:59:06.610Z,29.89
2019-04-16T13:00:06.602Z,29.59
2019-04-16T13:01:06.592Z,29.55
2019-04-16T13:02:12.078Z,29.68
2019-04-16T13:03:06.576Z,29.61
2019-04-16T13:04:06.576Z,29.44
2019-04-16T13:05:06.558Z,29.18
2019-04-16T13:06:06.593Z,28.71